sensor_id;sensor_type;location;lat;lon;timestamp;P1;durP1;ratioP1;P2;durP2;ratioP2
26512;SDS011;14186;53.822;10.152;2023-02-26T00:01:36;11.68;;;2.80;;
26512;SDS011;14186;53.822;10.152;2023-02-26T00:06:37;11.88;;;3.08;;
26512;SDS011;14186;53.822;10.152;2023-02-26T00:11:39;10.80;;;3.50;;
26512;SDS011;14186;53.822;10.152;2023-02-26T00:16:40;9.68;;;2.60;;
26512;SDS011;14186;53.822;10.152;2023-02-26T00:21:40;11.65;;;3.15;;
26512;SDS011;14186;53.822;10.152;2023-02-26T00:26:42;8.90;;;1.85;;
26512;SDS011;14186;53.822;10.152;2023-02-26T00:31:42;8.45;;;1.55;;
26512;SDS011;14186;53.822;10.152;2023-02-26T00:36:44;4.75;;;0.90;;
26512;SDS011;14186;53.822;10.152;2023-02-26T00:41:46;4.80;;;0.75;;
26512;SDS011;14186;53.822;10.152;2023-02-26T00:46:47;5.18;;;0.73;;
26512;SDS011;14186;53.822;10.152;2023-02-26T00:51:51;2.70;;;0.60;;
26512;SDS011;14186;53.822;10.152;2023-02-26T00:56:53;2.65;;;0.85;;
26512;SDS011;14186;53.822;10.152;2023-02-26T01:01:53;6.00;;;0.73;;
26512;SDS011;14186;53.822;10.152;2023-02-26T01:06:54;2.20;;;0.55;;
26512;SDS011;14186;53.822;10.152;2023-02-26T01:11:57;1.63;;;0.60;;
26512;SDS011;14186;53.822;10.152;2023-02-26T01:17:00;2.15;;;0.45;;
26512;SDS011;14186;53.822;10.152;2023-02-26T01:22:03;3.40;;;1.23;;
26512;SDS011;14186;53.822;10.152;2023-02-26T01:27:06;4.20;;;0.85;;
26512;SDS011;14186;53.822;10.152;2023-02-26T01:32:07;3.75;;;1.02;;
26512;SDS011;14186;53.822;10.152;2023-02-26T01:37:13;5.22;;;1.23;;
26512;SDS011;14186;53.822;10.152;2023-02-26T01:42:20;4.55;;;0.82;;
26512;SDS011;14186;53.822;10.152;2023-02-26T01:47:22;6.38;;;0.80;;
26512;SDS011;14186;53.822;10.152;2023-02-26T01:57:48;5.05;;;0.98;;
26512;SDS011;14186;53.822;10.152;2023-02-26T02:02:50;3.80;;;0.80;;
26512;SDS011;14186;53.822;10.152;2023-02-26T02:07:50;4.20;;;0.73;;
26512;SDS011;14186;53.822;10.152;2023-02-26T02:12:53;3.17;;;0.90;;
26512;SDS011;14186;53.822;10.152;2023-02-26T02:17:58;5.97;;;1.40;;
26512;SDS011;14186;53.822;10.152;2023-02-26T02:23:07;2.92;;;0.77;;
26512;SDS011;14186;53.822;10.152;2023-02-26T02:28:13;4.50;;;0.93;;
26512;SDS011;14186;53.822;10.152;2023-02-26T02:33:18;3.53;;;0.80;;
26512;SDS011;14186;53.822;10.152;2023-02-26T02:38:22;7.82;;;0.70;;
26512;SDS011;14186;53.822;10.152;2023-02-26T02:43:24;2.88;;;0.57;;
26512;SDS011;14186;53.822;10.152;2023-02-26T02:48:28;1.60;;;0.45;;
26512;SDS011;14186;53.822;10.152;2023-02-26T02:53:32;4.10;;;0.63;;
26512;SDS011;14186;53.822;10.152;2023-02-26T02:58:34;7.28;;;0.70;;
26512;SDS011;14186;53.822;10.152;2023-02-26T03:03:38;2.70;;;0.45;;
26512;SDS011;14186;53.822;10.152;2023-02-26T03:08:41;3.28;;;0.57;;
26512;SDS011;14186;53.822;10.152;2023-02-26T03:13:42;2.10;;;0.60;;
26512;SDS011;14186;53.822;10.152;2023-02-26T03:18:47;2.25;;;0.55;;
26512;SDS011;14186;53.822;10.152;2023-02-26T03:23:51;2.63;;;0.35;;
26512;SDS011;14186;53.822;10.152;2023-02-26T03:28:53;1.83;;;0.70;;
26512;SDS011;14186;53.822;10.152;2023-02-26T03:33:58;7.03;;;0.60;;
26512;SDS011;14186;53.822;10.152;2023-02-26T03:39:02;3.90;;;0.52;;
26512;SDS011;14186;53.822;10.152;2023-02-26T03:44:06;3.42;;;0.40;;
26512;SDS011;14186;53.822;10.152;2023-02-26T03:49:09;2.90;;;0.52;;
26512;SDS011;14186;53.822;10.152;2023-02-26T03:54:13;3.37;;;0.43;;
26512;SDS011;14186;53.822;10.152;2023-02-26T03:59:14;0.88;;;0.40;;
26512;SDS011;14186;53.822;10.152;2023-02-26T04:04:18;4.50;;;0.70;;
26512;SDS011;14186;53.822;10.152;2023-02-26T04:09:19;2.88;;;0.50;;
26512;SDS011;14186;53.822;10.152;2023-02-26T04:14:20;1.13;;;0.50;;
26512;SDS011;14186;53.822;10.152;2023-02-26T04:19:21;4.38;;;0.60;;
26512;SDS011;14186;53.822;10.152;2023-02-26T04:24:22;1.25;;;0.60;;
26512;SDS011;14186;53.822;10.152;2023-02-26T04:29:22;4.22;;;0.40;;
26512;SDS011;14186;53.822;10.152;2023-02-26T04:34:23;7.25;;;0.70;;
26512;SDS011;14186;53.822;10.152;2023-02-26T04:39:25;2.45;;;0.43;;
26512;SDS011;14186;53.822;10.152;2023-02-26T04:44:25;4.13;;;0.55;;
26512;SDS011;14186;53.822;10.152;2023-02-26T04:49:27;1.92;;;0.40;;
26512;SDS011;14186;53.822;10.152;2023-02-26T04:54:27;1.23;;;0.25;;
26512;SDS011;14186;53.822;10.152;2023-02-26T04:59:27;0.82;;;0.30;;
26512;SDS011;14186;53.822;10.152;2023-02-26T05:04:29;4.25;;;0.52;;
26512;SDS011;14186;53.822;10.152;2023-02-26T05:09:32;2.08;;;0.65;;
26512;SDS011;14186;53.822;10.152;2023-02-26T05:14:39;2.38;;;0.82;;
26512;SDS011;14186;53.822;10.152;2023-02-26T05:19:41;1.85;;;0.40;;
26512;SDS011;14186;53.822;10.152;2023-02-26T05:24:41;0.82;;;0.30;;
26512;SDS011;14186;53.822;10.152;2023-02-26T05:29:42;7.03;;;0.47;;
26512;SDS011;14186;53.822;10.152;2023-02-26T05:34:44;1.58;;;0.47;;
26512;SDS011;14186;53.822;10.152;2023-02-26T05:39:44;4.82;;;0.50;;
26512;SDS011;14186;53.822;10.152;2023-02-26T05:44:47;4.78;;;0.28;;
26512;SDS011;14186;53.822;10.152;2023-02-26T05:49:49;3.20;;;0.32;;
26512;SDS011;14186;53.822;10.152;2023-02-26T05:54:49;2.08;;;0.98;;
26512;SDS011;14186;53.822;10.152;2023-02-26T05:59:49;1.15;;;0.50;;
26512;SDS011;14186;53.822;10.152;2023-02-26T06:04:51;1.75;;;0.50;;
26512;SDS011;14186;53.822;10.152;2023-02-26T06:09:53;3.28;;;0.50;;
26512;SDS011;14186;53.822;10.152;2023-02-26T06:14:53;5.03;;;1.27;;
26512;SDS011;14186;53.822;10.152;2023-02-26T06:19:55;6.07;;;0.70;;
26512;SDS011;14186;53.822;10.152;2023-02-26T06:24:55;3.42;;;0.70;;
26512;SDS011;14186;53.822;10.152;2023-02-26T06:29:55;4.30;;;0.70;;
26512;SDS011;14186;53.822;10.152;2023-02-26T06:34:57;9.23;;;1.08;;
26512;SDS011;14186;53.822;10.152;2023-02-26T06:39:57;4.80;;;0.80;;
26512;SDS011;14186;53.822;10.152;2023-02-26T06:44:57;1.98;;;0.88;;
26512;SDS011;14186;53.822;10.152;2023-02-26T06:49:59;1.75;;;0.68;;
26512;SDS011;14186;53.822;10.152;2023-02-26T06:54:59;3.97;;;0.65;;
26512;SDS011;14186;53.822;10.152;2023-02-26T06:59:59;3.38;;;0.73;;
26512;SDS011;14186;53.822;10.152;2023-02-26T07:05:01;3.65;;;0.65;;
26512;SDS011;14186;53.822;10.152;2023-02-26T07:10:01;3.88;;;1.17;;
26512;SDS011;14186;53.822;10.152;2023-02-26T07:15:01;5.05;;;1.15;;
26512;SDS011;14186;53.822;10.152;2023-02-26T07:20:04;4.45;;;1.30;;
26512;SDS011;14186;53.822;10.152;2023-02-26T07:25:04;3.38;;;1.45;;
26512;SDS011;14186;53.822;10.152;2023-02-26T07:30:05;4.13;;;1.52;;
26512;SDS011;14186;53.822;10.152;2023-02-26T07:35:08;5.40;;;1.73;;
26512;SDS011;14186;53.822;10.152;2023-02-26T07:40:08;5.88;;;1.70;;
26512;SDS011;14186;53.822;10.152;2023-02-26T07:45:09;5.60;;;1.83;;
26512;SDS011;14186;53.822;10.152;2023-02-26T07:50:11;4.25;;;1.60;;
26512;SDS011;14186;53.822;10.152;2023-02-26T07:55:11;4.07;;;1.38;;
26512;SDS011;14186;53.822;10.152;2023-02-26T08:00:12;2.67;;;0.90;;
26512;SDS011;14186;53.822;10.152;2023-02-26T08:05:14;5.25;;;1.35;;
26512;SDS011;14186;53.822;10.152;2023-02-26T08:10:14;5.88;;;1.35;;
26512;SDS011;14186;53.822;10.152;2023-02-26T08:15:15;7.25;;;1.00;;
26512;SDS011;14186;53.822;10.152;2023-02-26T08:20:16;3.03;;;1.05;;
26512;SDS011;14186;53.822;10.152;2023-02-26T08:25:17;3.15;;;0.80;;
26512;SDS011;14186;53.822;10.152;2023-02-26T08:30:17;5.97;;;0.82;;
26512;SDS011;14186;53.822;10.152;2023-02-26T08:35:19;4.95;;;0.95;;
26512;SDS011;14186;53.822;10.152;2023-02-26T08:40:19;3.78;;;0.80;;
26512;SDS011;14186;53.822;10.152;2023-02-26T08:45:19;1.88;;;0.52;;
26512;SDS011;14186;53.822;10.152;2023-02-26T08:50:21;2.17;;;0.70;;
26512;SDS011;14186;53.822;10.152;2023-02-26T08:55:21;5.65;;;1.02;;
26512;SDS011;14186;53.822;10.152;2023-02-26T09:00:22;2.53;;;0.52;;
26512;SDS011;14186;53.822;10.152;2023-02-26T09:05:23;6.68;;;1.33;;
26512;SDS011;14186;53.822;10.152;2023-02-26T09:10:23;5.25;;;0.85;;
26512;SDS011;14186;53.822;10.152;2023-02-26T09:15:24;7.22;;;0.80;;
26512;SDS011;14186;53.822;10.152;2023-02-26T09:20:25;2.15;;;0.70;;
26512;SDS011;14186;53.822;10.152;2023-02-26T09:25:26;3.67;;;1.00;;
26512;SDS011;14186;53.822;10.152;2023-02-26T09:30:26;3.30;;;0.40;;
26512;SDS011;14186;53.822;10.152;2023-02-26T09:35:28;1.02;;;0.25;;
26512;SDS011;14186;53.822;10.152;2023-02-26T09:40:31;4.40;;;0.93;;
26512;SDS011;14186;53.822;10.152;2023-02-26T09:45:36;3.45;;;0.73;;
26512;SDS011;14186;53.822;10.152;2023-02-26T09:50:39;1.58;;;0.40;;
26512;SDS011;14186;53.822;10.152;2023-02-26T09:55:41;4.70;;;0.88;;
26512;SDS011;14186;53.822;10.152;2023-02-26T10:00:43;3.17;;;0.60;;
26512;SDS011;14186;53.822;10.152;2023-02-26T10:05:52;2.97;;;0.90;;
26512;SDS011;14186;53.822;10.152;2023-02-26T10:10:58;2.35;;;0.80;;
26512;SDS011;14186;53.822;10.152;2023-02-26T10:16:03;3.45;;;1.05;;
26512;SDS011;14186;53.822;10.152;2023-02-26T10:21:06;5.13;;;1.40;;
26512;SDS011;14186;53.822;10.152;2023-02-26T10:26:10;3.38;;;1.42;;
26512;SDS011;14186;53.822;10.152;2023-02-26T10:31:15;4.15;;;0.70;;
26512;SDS011;14186;53.822;10.152;2023-02-26T10:36:18;7.30;;;1.48;;
26512;SDS011;14186;53.822;10.152;2023-02-26T10:46:28;6.80;;;1.13;;
26512;SDS011;14186;53.822;10.152;2023-02-26T10:51:35;1.20;;;0.47;;
26512;SDS011;14186;53.822;10.152;2023-02-26T10:56:35;3.88;;;1.10;;
26512;SDS011;14186;53.822;10.152;2023-02-26T11:01:35;4.60;;;1.98;;
26512;SDS011;14186;53.822;10.152;2023-02-26T11:06:38;4.68;;;1.50;;
26512;SDS011;14186;53.822;10.152;2023-02-26T11:11:41;6.25;;;0.95;;
26512;SDS011;14186;53.822;10.152;2023-02-26T11:16:45;2.17;;;0.70;;
26512;SDS011;14186;53.822;10.152;2023-02-26T11:21:49;3.50;;;0.90;;
26512;SDS011;14186;53.822;10.152;2023-02-26T11:26:50;3.30;;;1.02;;
26512;SDS011;14186;53.822;10.152;2023-02-26T11:31:53;3.33;;;0.93;;
26512;SDS011;14186;53.822;10.152;2023-02-26T11:37:01;3.53;;;0.70;;
26512;SDS011;14186;53.822;10.152;2023-02-26T11:42:06;2.25;;;0.57;;
26512;SDS011;14186;53.822;10.152;2023-02-26T11:47:10;4.30;;;0.65;;
26512;SDS011;14186;53.822;10.152;2023-02-26T11:52:20;4.28;;;1.00;;
26512;SDS011;14186;53.822;10.152;2023-02-26T11:57:22;7.38;;;1.33;;
26512;SDS011;14186;53.822;10.152;2023-02-26T12:02:24;2.75;;;0.88;;
26512;SDS011;14186;53.822;10.152;2023-02-26T12:07:26;3.72;;;0.68;;
26512;SDS011;14186;53.822;10.152;2023-02-26T12:12:29;2.20;;;0.80;;
26512;SDS011;14186;53.822;10.152;2023-02-26T12:17:43;4.60;;;0.80;;
26512;SDS011;14186;53.822;10.152;2023-02-26T12:22:49;2.45;;;0.82;;
26512;SDS011;14186;53.822;10.152;2023-02-26T12:28:04;2.38;;;0.50;;
26512;SDS011;14186;53.822;10.152;2023-02-26T12:33:12;3.55;;;0.60;;
26512;SDS011;14186;53.822;10.152;2023-02-26T12:38:18;3.80;;;0.60;;
26512;SDS011;14186;53.822;10.152;2023-02-26T12:43:20;2.50;;;0.70;;
26512;SDS011;14186;53.822;10.152;2023-02-26T12:53:50;4.10;;;0.63;;
26512;SDS011;14186;53.822;10.152;2023-02-26T12:59:01;5.47;;;0.73;;
26512;SDS011;14186;53.822;10.152;2023-02-26T13:04:10;5.47;;;0.73;;
26512;SDS011;14186;53.822;10.152;2023-02-26T13:09:18;2.13;;;0.65;;
26512;SDS011;14186;53.822;10.152;2023-02-26T13:14:28;5.07;;;1.10;;
26512;SDS011;14186;53.822;10.152;2023-02-26T13:19:32;4.72;;;0.80;;
26512;SDS011;14186;53.822;10.152;2023-02-26T13:24:37;6.20;;;1.40;;
26512;SDS011;14186;53.822;10.152;2023-02-26T13:29:40;4.83;;;0.63;;
26512;SDS011;14186;53.822;10.152;2023-02-26T13:34:43;5.90;;;1.00;;
26512;SDS011;14186;53.822;10.152;2023-02-26T13:39:46;3.92;;;0.98;;
26512;SDS011;14186;53.822;10.152;2023-02-26T13:44:53;2.95;;;0.60;;
26512;SDS011;14186;53.822;10.152;2023-02-26T13:50:03;2.70;;;0.65;;
26512;SDS011;14186;53.822;10.152;2023-02-26T13:55:19;5.97;;;0.52;;
26512;SDS011;14186;53.822;10.152;2023-02-26T14:00:34;4.15;;;0.68;;
26512;SDS011;14186;53.822;10.152;2023-02-26T14:11:01;5.28;;;0.90;;
26512;SDS011;14186;53.822;10.152;2023-02-26T14:16:08;6.13;;;0.75;;
26512;SDS011;14186;53.822;10.152;2023-02-26T14:26:31;3.47;;;0.50;;
26512;SDS011;14186;53.822;10.152;2023-02-26T14:31:45;1.90;;;0.75;;
26512;SDS011;14186;53.822;10.152;2023-02-26T14:36:47;3.28;;;0.70;;
26512;SDS011;14186;53.822;10.152;2023-02-26T14:41:49;6.88;;;1.00;;
26512;SDS011;14186;53.822;10.152;2023-02-26T14:46:53;2.55;;;0.60;;
26512;SDS011;14186;53.822;10.152;2023-02-26T14:51:59;3.47;;;0.68;;
26512;SDS011;14186;53.822;10.152;2023-02-26T14:57:05;3.72;;;0.63;;
26512;SDS011;14186;53.822;10.152;2023-02-26T15:02:14;7.68;;;0.98;;
26512;SDS011;14186;53.822;10.152;2023-02-26T15:07:23;4.50;;;1.63;;
26512;SDS011;14186;53.822;10.152;2023-02-26T15:12:32;4.60;;;1.52;;
26512;SDS011;14186;53.822;10.152;2023-02-26T15:17:38;6.32;;;1.30;;
26512;SDS011;14186;53.822;10.152;2023-02-26T15:22:46;3.42;;;0.82;;
26512;SDS011;14186;53.822;10.152;2023-02-26T15:27:49;5.70;;;0.80;;
26512;SDS011;14186;53.822;10.152;2023-02-26T15:32:54;5.07;;;1.10;;
26512;SDS011;14186;53.822;10.152;2023-02-26T15:42:56;1.52;;;0.43;;
26512;SDS011;14186;53.822;10.152;2023-02-26T15:47:59;1.98;;;0.50;;
26512;SDS011;14186;53.822;10.152;2023-02-26T15:53:01;7.60;;;1.27;;
26512;SDS011;14186;53.822;10.152;2023-02-26T15:58:04;4.15;;;0.75;;
26512;SDS011;14186;53.822;10.152;2023-02-26T16:03:05;9.00;;;0.80;;
26512;SDS011;14186;53.822;10.152;2023-02-26T16:08:05;3.47;;;0.70;;
26512;SDS011;14186;53.822;10.152;2023-02-26T16:13:08;2.65;;;0.95;;
26512;SDS011;14186;53.822;10.152;2023-02-26T16:18:12;3.00;;;0.70;;
26512;SDS011;14186;53.822;10.152;2023-02-26T16:23:14;3.15;;;0.80;;
26512;SDS011;14186;53.822;10.152;2023-02-26T16:28:18;2.95;;;0.70;;
26512;SDS011;14186;53.822;10.152;2023-02-26T16:33:20;1.55;;;0.60;;
26512;SDS011;14186;53.822;10.152;2023-02-26T16:38:23;5.97;;;0.95;;
26512;SDS011;14186;53.822;10.152;2023-02-26T16:43:34;3.25;;;0.63;;
26512;SDS011;14186;53.822;10.152;2023-02-26T16:48:42;3.15;;;0.70;;
26512;SDS011;14186;53.822;10.152;2023-02-26T16:53:45;4.30;;;0.63;;
26512;SDS011;14186;53.822;10.152;2023-02-26T16:58:48;6.75;;;1.10;;
26512;SDS011;14186;53.822;10.152;2023-02-26T17:03:52;4.60;;;0.90;;
26512;SDS011;14186;53.822;10.152;2023-02-26T17:08:55;2.05;;;0.63;;
26512;SDS011;14186;53.822;10.152;2023-02-26T17:14:01;5.03;;;1.80;;
26512;SDS011;14186;53.822;10.152;2023-02-26T17:19:02;8.23;;;2.13;;
26512;SDS011;14186;53.822;10.152;2023-02-26T17:24:02;11.43;;;2.50;;
26512;SDS011;14186;53.822;10.152;2023-02-26T17:29:04;6.88;;;2.58;;
26512;SDS011;14186;53.822;10.152;2023-02-26T17:34:04;5.68;;;2.15;;
26512;SDS011;14186;53.822;10.152;2023-02-26T17:39:05;8.63;;;3.28;;
26512;SDS011;14186;53.822;10.152;2023-02-26T17:44:07;6.28;;;2.15;;
26512;SDS011;14186;53.822;10.152;2023-02-26T17:49:08;7.45;;;3.13;;
26512;SDS011;14186;53.822;10.152;2023-02-26T17:54:08;8.57;;;2.75;;
26512;SDS011;14186;53.822;10.152;2023-02-26T17:59:10;5.95;;;2.95;;
26512;SDS011;14186;53.822;10.152;2023-02-26T18:04:10;5.65;;;2.40;;
26512;SDS011;14186;53.822;10.152;2023-02-26T18:09:11;8.43;;;3.00;;
26512;SDS011;14186;53.822;10.152;2023-02-26T18:14:13;8.73;;;2.10;;
26512;SDS011;14186;53.822;10.152;2023-02-26T18:19:13;10.60;;;3.97;;
26512;SDS011;14186;53.822;10.152;2023-02-26T18:24:16;10.73;;;4.93;;
26512;SDS011;14186;53.822;10.152;2023-02-26T18:34:39;9.90;;;4.00;;
26512;SDS011;14186;53.822;10.152;2023-02-26T18:39:42;7.63;;;2.60;;
26512;SDS011;14186;53.822;10.152;2023-02-26T18:44:43;11.85;;;3.50;;
26512;SDS011;14186;53.822;10.152;2023-02-26T18:49:48;8.70;;;3.22;;
26512;SDS011;14186;53.822;10.152;2023-02-26T18:54:51;8.68;;;2.30;;
26512;SDS011;14186;53.822;10.152;2023-02-26T18:59:51;8.18;;;2.10;;
26512;SDS011;14186;53.822;10.152;2023-02-26T19:10:11;4.10;;;1.88;;
26512;SDS011;14186;53.822;10.152;2023-02-26T19:20:12;4.72;;;1.85;;
26512;SDS011;14186;53.822;10.152;2023-02-26T19:25:14;11.57;;;4.03;;
26512;SDS011;14186;53.822;10.152;2023-02-26T19:30:37;16.75;;;5.55;;
26512;SDS011;14186;53.822;10.152;2023-02-26T19:35:37;16.63;;;4.85;;
26512;SDS011;14186;53.822;10.152;2023-02-26T19:40:39;17.75;;;6.90;;
26512;SDS011;14186;53.822;10.152;2023-02-26T19:45:42;12.32;;;4.35;;
26512;SDS011;14186;53.822;10.152;2023-02-26T19:50:43;9.82;;;3.80;;
26512;SDS011;14186;53.822;10.152;2023-02-26T19:55:44;12.18;;;3.97;;
26512;SDS011;14186;53.822;10.152;2023-02-26T20:00:44;13.60;;;4.57;;
26512;SDS011;14186;53.822;10.152;2023-02-26T20:05:44;10.45;;;3.88;;
26512;SDS011;14186;53.822;10.152;2023-02-26T20:10:48;11.68;;;3.45;;
26512;SDS011;14186;53.822;10.152;2023-02-26T20:15:48;7.43;;;3.35;;
26512;SDS011;14186;53.822;10.152;2023-02-26T20:20:49;6.90;;;2.75;;
26512;SDS011;14186;53.822;10.152;2023-02-26T20:25:50;8.43;;;3.25;;
26512;SDS011;14186;53.822;10.152;2023-02-26T20:30:52;8.50;;;3.08;;
26512;SDS011;14186;53.822;10.152;2023-02-26T20:35:53;8.57;;;2.57;;
26512;SDS011;14186;53.822;10.152;2023-02-26T20:40:54;11.00;;;2.97;;
26512;SDS011;14186;53.822;10.152;2023-02-26T20:45:55;8.45;;;3.60;;
26512;SDS011;14186;53.822;10.152;2023-02-26T20:50:57;11.35;;;2.97;;
26512;SDS011;14186;53.822;10.152;2023-02-26T20:55:59;8.48;;;2.70;;
26512;SDS011;14186;53.822;10.152;2023-02-26T21:00:59;8.75;;;2.60;;
26512;SDS011;14186;53.822;10.152;2023-02-26T21:05:59;7.40;;;2.65;;
26512;SDS011;14186;53.822;10.152;2023-02-26T21:11:01;7.68;;;2.63;;
26512;SDS011;14186;53.822;10.152;2023-02-26T21:16:01;3.50;;;2.33;;
26512;SDS011;14186;53.822;10.152;2023-02-26T21:21:01;8.93;;;2.70;;
26512;SDS011;14186;53.822;10.152;2023-02-26T21:26:03;4.90;;;2.53;;
26512;SDS011;14186;53.822;10.152;2023-02-26T21:31:03;9.32;;;2.95;;
26512;SDS011;14186;53.822;10.152;2023-02-26T21:36:04;8.55;;;2.22;;
26512;SDS011;14186;53.822;10.152;2023-02-26T21:41:05;8.00;;;2.13;;
26512;SDS011;14186;53.822;10.152;2023-02-26T21:46:05;7.10;;;2.38;;
26512;SDS011;14186;53.822;10.152;2023-02-26T21:51:06;6.30;;;2.70;;
26512;SDS011;14186;53.822;10.152;2023-02-26T21:56:07;7.70;;;3.05;;
26512;SDS011;14186;53.822;10.152;2023-02-26T22:01:07;6.15;;;2.90;;
26512;SDS011;14186;53.822;10.152;2023-02-26T22:06:08;9.90;;;3.17;;
26512;SDS011;14186;53.822;10.152;2023-02-26T22:11:09;5.88;;;2.70;;
26512;SDS011;14186;53.822;10.152;2023-02-26T22:16:09;6.55;;;2.85;;
26512;SDS011;14186;53.822;10.152;2023-02-26T22:21:09;9.60;;;2.85;;
26512;SDS011;14186;53.822;10.152;2023-02-26T22:26:11;12.80;;;3.40;;
26512;SDS011;14186;53.822;10.152;2023-02-26T22:31:11;10.48;;;3.30;;
26512;SDS011;14186;53.822;10.152;2023-02-26T22:36:11;10.52;;;3.22;;
26512;SDS011;14186;53.822;10.152;2023-02-26T22:41:13;4.35;;;2.30;;
26512;SDS011;14186;53.822;10.152;2023-02-26T22:46:13;8.63;;;3.05;;
26512;SDS011;14186;53.822;10.152;2023-02-26T22:51:13;9.00;;;3.17;;
26512;SDS011;14186;53.822;10.152;2023-02-26T22:56:15;8.95;;;3.35;;
26512;SDS011;14186;53.822;10.152;2023-02-26T23:01:15;5.35;;;2.30;;
26512;SDS011;14186;53.822;10.152;2023-02-26T23:06:16;4.95;;;2.20;;
26512;SDS011;14186;53.822;10.152;2023-02-26T23:11:17;8.82;;;2.10;;
26512;SDS011;14186;53.822;10.152;2023-02-26T23:16:17;6.28;;;1.90;;
26512;SDS011;14186;53.822;10.152;2023-02-26T23:21:18;8.07;;;2.38;;
26512;SDS011;14186;53.822;10.152;2023-02-26T23:26:19;7.18;;;1.98;;
26512;SDS011;14186;53.822;10.152;2023-02-26T23:31:19;9.15;;;1.85;;
26512;SDS011;14186;53.822;10.152;2023-02-26T23:36:19;6.72;;;2.30;;
26512;SDS011;14186;53.822;10.152;2023-02-26T23:41:21;6.95;;;2.55;;
26512;SDS011;14186;53.822;10.152;2023-02-26T23:46:21;7.38;;;1.88;;
26512;SDS011;14186;53.822;10.152;2023-02-26T23:51:21;8.82;;;2.85;;
26512;SDS011;14186;53.822;10.152;2023-02-26T23:56:23;7.20;;;2.35;;
